createdAt,value
2018-12-14T00:01:44.894Z,15.13
2018-12-14T00:04:12.375Z,15.17
2018-12-14T00:06:39.879Z,15.27
2018-12-14T00:09:07.407Z,16.50
2018-12-14T00:11:34.837Z,15.07
2018-12-14T00:14:02.311Z,16.47
2018-12-14T00:16:29.739Z,17.60
2018-12-14T00:18:57.191Z,17.53
2018-12-14T00:21:25.483Z,17.07
2018-12-14T00:23:52.896Z,18.17
2018-12-14T00:26:20.350Z,17.83
2018-12-14T00:28:47.802Z,18.90
2018-12-14T00:31:15.319Z,18.00
2018-12-14T00:33:42.877Z,18.23
2018-12-14T00:36:10.322Z,18.30
2018-12-14T00:38:38.010Z,18.60
2018-12-14T00:41:05.582Z,19.10
2018-12-14T00:43:33.007Z,17.73
2018-12-14T00:46:00.495Z,16.90
2018-12-14T00:48:27.903Z,18.00
2018-12-14T00:50:55.354Z,16.17
2018-12-14T00:53:22.775Z,17.87
2018-12-14T00:55:50.355Z,18.20
2018-12-14T00:58:17.771Z,17.60
2018-12-14T01:00:45.233Z,17.93
2018-12-14T01:03:12.695Z,18.70
2018-12-14T01:05:40.150Z,18.07
2018-12-14T01:08:07.576Z,18.47
2018-12-14T01:10:35.009Z,17.67
2018-12-14T01:13:02.590Z,17.53
2018-12-14T01:15:30.104Z,17.60
2018-12-14T01:17:57.685Z,17.30
2018-12-14T01:20:26.446Z,17.33
2018-12-14T01:22:53.884Z,17.00
2018-12-14T01:25:21.315Z,16.87
2018-12-14T01:27:48.752Z,16.50
2018-12-14T01:32:50.043Z,17.10
2018-12-14T01:35:17.480Z,17.93
2018-12-14T01:37:44.943Z,15.83
2018-12-14T01:40:12.524Z,15.80
2018-12-14T01:42:39.966Z,16.37
2018-12-14T01:45:07.391Z,16.03
2018-12-14T01:47:34.892Z,17.30
2018-12-14T01:50:02.424Z,15.23
2018-12-14T01:52:30.034Z,17.07
2018-12-14T01:54:57.474Z,16.67
2018-12-14T01:57:25.202Z,16.87
2018-12-14T01:59:52.649Z,16.63
2018-12-14T02:02:20.071Z,16.47
2018-12-14T02:04:47.520Z,15.90
2018-12-14T02:07:15.006Z,16.67
2018-12-14T02:09:42.508Z,16.87
2018-12-14T02:12:11.476Z,15.67
2018-12-14T02:14:39.257Z,16.33
2018-12-14T02:17:06.764Z,15.83
2018-12-14T02:19:34.208Z,16.23
2018-12-14T02:22:01.642Z,16.10
2018-12-14T02:24:29.100Z,16.97
2018-12-14T02:26:56.552Z,16.00
2018-12-14T02:29:24.019Z,15.17
2018-12-14T02:31:51.440Z,15.00
2018-12-14T02:34:18.870Z,16.40
2018-12-14T02:36:46.364Z,16.40
2018-12-14T02:39:13.779Z,15.00
2018-12-14T02:41:41.222Z,15.80
2018-12-14T02:44:08.654Z,16.27
2018-12-14T02:46:36.098Z,14.77
2018-12-14T02:49:03.567Z,15.30
2018-12-14T02:51:31.034Z,15.37
2018-12-14T02:53:58.499Z,15.63
2018-12-14T02:56:25.938Z,14.67
2018-12-14T02:58:53.363Z,15.73
2018-12-14T03:01:20.816Z,15.73
2018-12-14T03:03:48.237Z,15.43
2018-12-14T03:06:15.675Z,16.03
2018-12-14T03:08:43.146Z,16.07
2018-12-14T03:11:12.676Z,16.23
2018-12-14T03:13:40.121Z,15.70
2018-12-14T03:16:07.559Z,15.73
2018-12-14T03:18:35.294Z,14.73
2018-12-14T03:21:02.820Z,16.73
2018-12-14T03:23:30.283Z,15.97
2018-12-14T03:25:58.003Z,14.70
2018-12-14T03:28:25.434Z,15.93
2018-12-14T03:30:52.851Z,14.77
2018-12-14T03:33:20.307Z,15.73
2018-12-14T03:35:47.719Z,14.07
2018-12-14T03:38:15.206Z,14.97
2018-12-14T03:40:42.624Z,15.17
2018-12-14T03:43:10.067Z,15.63
2018-12-14T03:45:37.523Z,13.93
2018-12-14T03:48:05.123Z,15.17
2018-12-14T03:50:32.560Z,14.73
2018-12-14T03:52:59.980Z,14.93
2018-12-14T03:55:27.481Z,14.23
2018-12-14T03:57:55.407Z,15.37
2018-12-14T04:00:23.049Z,14.07
2018-12-14T04:02:50.663Z,15.03
2018-12-14T04:05:18.400Z,14.87
2018-12-14T04:07:45.825Z,14.50
2018-12-14T04:10:13.422Z,15.37
2018-12-14T04:12:41.790Z,15.00
2018-12-14T04:15:09.792Z,14.03
2018-12-14T04:17:37.211Z,14.83
2018-12-14T04:20:05.034Z,14.87
2018-12-14T04:22:32.447Z,14.33
2018-12-14T04:24:59.892Z,14.30
2018-12-14T04:27:27.314Z,15.40
2018-12-14T04:29:54.764Z,14.67
2018-12-14T04:32:22.172Z,14.27
2018-12-14T04:34:49.654Z,14.13
2018-12-14T04:37:17.084Z,14.30
2018-12-14T04:39:44.537Z,15.10
2018-12-14T04:42:11.950Z,15.13
2018-12-14T04:44:39.377Z,15.70
2018-12-14T04:47:07.206Z,14.47
2018-12-14T04:49:34.756Z,14.33
2018-12-14T04:52:04.268Z,14.43
2018-12-14T04:54:31.734Z,13.30
2018-12-14T04:56:59.248Z,13.50
2018-12-14T04:59:26.678Z,13.23
2018-12-14T05:01:54.123Z,13.07
2018-12-14T05:04:21.576Z,13.40
2018-12-14T05:06:49.032Z,12.93
2018-12-14T05:09:16.480Z,12.77
2018-12-14T05:11:43.958Z,12.70
2018-12-14T05:14:11.386Z,11.77
2018-12-14T05:16:38.823Z,11.60
2018-12-14T05:19:06.299Z,12.07
2018-12-14T05:21:33.748Z,12.43
2018-12-14T05:24:01.160Z,11.83
2018-12-14T05:26:29.055Z,12.47
2018-12-14T05:28:56.570Z,11.90
2018-12-14T05:31:24.016Z,12.20
2018-12-14T05:33:51.487Z,13.00
2018-12-14T05:36:18.926Z,12.03
2018-12-14T05:38:46.370Z,12.27
2018-12-14T05:41:13.870Z,12.07
2018-12-14T05:43:41.316Z,13.40
2018-12-14T05:46:08.740Z,13.30
2018-12-14T05:48:36.182Z,13.53
2018-12-14T05:51:03.679Z,13.97
2018-12-14T05:53:31.118Z,13.93
2018-12-14T05:55:58.543Z,14.00
2018-12-14T05:58:26.042Z,14.07
2018-12-14T06:00:53.536Z,18.47
2018-12-14T06:03:20.991Z,13.97
2018-12-14T06:05:48.416Z,14.03
2018-12-14T06:08:15.868Z,14.43
2018-12-14T06:10:43.339Z,14.17
2018-12-14T06:13:10.777Z,13.13
2018-12-14T06:15:38.290Z,13.33
2018-12-14T06:18:05.834Z,14.60
2018-12-14T06:20:33.243Z,14.53
2018-12-14T06:23:00.785Z,14.10
2018-12-14T06:25:28.212Z,15.63
2018-12-14T06:27:55.634Z,15.03
2018-12-14T06:30:23.055Z,15.17
2018-12-14T06:32:50.511Z,14.43
2018-12-14T06:35:17.971Z,14.13
2018-12-14T06:37:45.387Z,14.83
2018-12-14T06:40:12.902Z,13.50
2018-12-14T06:42:40.359Z,14.83
2018-12-14T06:45:08.234Z,14.70
2018-12-14T06:47:35.863Z,14.50
2018-12-14T06:50:05.005Z,14.40
2018-12-14T06:52:32.424Z,14.63
2018-12-14T06:54:59.902Z,14.50
2018-12-14T06:57:27.487Z,14.83
2018-12-14T06:59:54.933Z,14.93
2018-12-14T07:02:22.363Z,14.67
2018-12-14T07:04:49.862Z,15.10
2018-12-14T07:07:17.291Z,14.43
2018-12-14T07:09:44.707Z,13.90
2018-12-14T07:12:12.238Z,15.37
2018-12-14T07:14:39.669Z,15.23
2018-12-14T07:17:07.152Z,14.83
2018-12-14T07:19:34.662Z,14.57
2018-12-14T07:22:02.118Z,13.83
2018-12-14T07:24:29.537Z,14.17
2018-12-14T07:26:57.290Z,15.00
2018-12-14T07:29:24.779Z,13.67
2018-12-14T07:31:52.266Z,15.20
2018-12-14T07:34:19.695Z,15.53
2018-12-14T07:36:47.145Z,15.43
2018-12-14T07:39:14.857Z,16.30
2018-12-14T07:41:42.305Z,14.57
2018-12-14T07:44:11.656Z,14.77
2018-12-14T07:46:39.191Z,15.70
2018-12-14T07:49:06.726Z,16.33
2018-12-14T07:51:34.188Z,16.13
2018-12-14T07:54:01.613Z,16.07
2018-12-14T07:56:29.188Z,16.03
2018-12-14T07:58:56.914Z,16.07
2018-12-14T08:01:24.348Z,15.83
2018-12-14T08:03:52.666Z,16.10
2018-12-14T08:06:20.129Z,16.17
2018-12-14T08:08:47.578Z,16.73
2018-12-14T08:11:15.014Z,16.73
2018-12-14T08:13:42.443Z,17.27
2018-12-14T08:16:09.872Z,16.13
2018-12-14T08:18:37.317Z,16.77
2018-12-14T08:21:04.786Z,16.80
2018-12-14T08:23:32.238Z,16.63
2018-12-14T08:25:59.711Z,15.73
2018-12-14T08:28:27.176Z,16.83
2018-12-14T08:30:54.605Z,16.23
2018-12-14T08:33:22.063Z,16.53
2018-12-14T08:35:49.479Z,15.97
2018-12-14T08:38:16.906Z,16.50
2018-12-14T08:40:44.365Z,15.80
2018-12-14T08:43:12.422Z,16.53
2018-12-14T08:45:39.875Z,16.13
2018-12-14T08:48:07.524Z,16.97
2018-12-14T08:50:34.947Z,16.83
2018-12-14T08:53:02.664Z,16.50
2018-12-14T08:55:30.090Z,16.70
2018-12-14T08:57:57.536Z,16.17
2018-12-14T09:00:24.978Z,17.27
2018-12-14T09:02:52.399Z,17.27
2018-12-14T09:05:19.856Z,16.90
2018-12-14T09:07:47.283Z,16.57
2018-12-14T09:10:14.747Z,16.70
2018-12-14T09:12:42.193Z,17.13
2018-12-14T09:15:09.658Z,17.80
2018-12-14T09:17:37.158Z,17.70
2018-12-14T09:20:05.267Z,17.60
2018-12-14T09:22:32.813Z,17.63
2018-12-14T09:25:00.377Z,17.03
2018-12-14T09:27:27.821Z,17.40
2018-12-14T09:29:55.349Z,18.30
2018-12-14T09:32:22.794Z,18.33
2018-12-14T09:34:50.350Z,18.50
2018-12-14T09:37:17.774Z,17.10
2018-12-14T09:39:45.202Z,18.40
2018-12-14T09:42:12.660Z,16.67
2018-12-14T09:44:40.106Z,16.83
2018-12-14T09:47:10.187Z,17.67
2018-12-14T09:49:37.628Z,18.07
2018-12-14T09:52:05.068Z,17.70
2018-12-14T09:54:32.516Z,18.70
2018-12-14T09:57:00.143Z,17.57
2018-12-14T09:59:27.616Z,16.60
2018-12-14T10:01:55.242Z,17.57
2018-12-14T10:04:22.694Z,17.30
2018-12-14T10:06:50.135Z,17.47
2018-12-14T10:09:17.720Z,19.10
2018-12-14T10:11:47.990Z,18.27
2018-12-14T10:14:15.660Z,17.90
2018-12-14T10:16:43.159Z,17.30
2018-12-14T10:19:10.599Z,16.73
2018-12-14T10:21:38.043Z,18.23
2018-12-14T10:24:05.504Z,17.03
2018-12-14T10:26:32.967Z,17.50
2018-12-14T10:29:00.503Z,16.57
2018-12-14T10:31:27.953Z,19.17
2018-12-14T10:33:55.386Z,16.13
2018-12-14T10:36:22.809Z,17.87
2018-12-14T10:38:50.249Z,17.57
2018-12-14T10:41:17.693Z,17.53
2018-12-14T10:43:46.719Z,16.67
2018-12-14T10:46:14.179Z,18.20
2018-12-14T10:48:41.753Z,17.07
2018-12-14T10:51:09.174Z,17.27
2018-12-14T10:53:36.635Z,16.97
2018-12-14T10:56:04.074Z,17.83
2018-12-14T10:58:32.793Z,16.03
2018-12-14T11:01:05.792Z,17.80
2018-12-14T11:03:33.311Z,17.70
2018-12-14T11:06:00.856Z,17.60
2018-12-14T11:08:28.370Z,17.27
2018-12-14T11:10:55.859Z,17.93
2018-12-14T11:13:23.383Z,16.83
2018-12-14T11:15:50.847Z,17.60
2018-12-14T11:18:18.339Z,17.70
2018-12-14T11:20:46.531Z,17.63
2018-12-14T11:23:13.970Z,18.30
2018-12-14T11:25:41.423Z,17.77
2018-12-14T11:28:08.883Z,17.27
2018-12-14T11:30:36.408Z,17.77
2018-12-14T11:33:03.965Z,18.23
2018-12-14T11:35:31.430Z,18.07
2018-12-14T11:37:59.570Z,17.03
2018-12-14T11:40:27.014Z,16.63
2018-12-14T11:42:54.487Z,16.70
2018-12-14T11:45:21.951Z,17.00
2018-12-14T11:47:49.405Z,17.63
2018-12-14T11:50:16.828Z,16.33
2018-12-14T11:52:44.270Z,16.17
2018-12-14T11:55:11.700Z,15.50
2018-12-14T11:57:39.145Z,17.23
2018-12-14T12:00:08.568Z,16.83
2018-12-14T12:02:36.103Z,16.17
2018-12-14T12:05:04.478Z,15.73
2018-12-14T12:07:32.040Z,16.80
2018-12-14T12:09:59.476Z,17.10
2018-12-14T12:12:27.114Z,16.23
2018-12-14T12:14:54.680Z,17.77
2018-12-14T12:17:22.119Z,17.53
2018-12-14T12:19:49.559Z,16.67
2018-12-14T12:22:16.997Z,16.03
2018-12-14T12:24:44.443Z,16.90
2018-12-14T12:27:11.903Z,16.80
2018-12-14T12:29:39.341Z,16.13
2018-12-14T12:32:06.812Z,15.80
2018-12-14T12:34:34.262Z,14.40
2018-12-14T12:37:01.769Z,14.57
2018-12-14T12:39:29.243Z,15.33
2018-12-14T12:41:56.898Z,14.97
2018-12-14T12:44:24.360Z,14.80
2018-12-14T12:46:51.785Z,13.67
2018-12-14T12:49:19.250Z,14.20
2018-12-14T12:51:46.942Z,15.27
2018-12-14T12:54:14.384Z,14.30
2018-12-14T12:56:41.844Z,14.10
2018-12-14T12:59:09.292Z,14.10
2018-12-14T13:01:36.737Z,14.10
2018-12-14T13:04:04.371Z,15.03
2018-12-14T13:06:31.817Z,14.57
2018-12-14T13:08:59.254Z,13.93
2018-12-14T13:11:26.706Z,14.10
2018-12-14T13:13:54.126Z,14.23
2018-12-14T13:16:21.592Z,13.73
2018-12-14T13:18:49.034Z,13.63
2018-12-14T13:21:16.662Z,14.23
2018-12-14T13:23:44.210Z,14.63
2018-12-14T13:26:11.665Z,13.50
2018-12-14T13:28:39.229Z,13.93
2018-12-14T13:31:06.700Z,13.80
2018-12-14T13:33:34.148Z,13.27
2018-12-14T13:36:01.605Z,13.63
2018-12-14T13:38:29.047Z,13.47
2018-12-14T13:40:56.525Z,14.27
2018-12-14T13:43:24.084Z,13.37
2018-12-14T13:45:52.984Z,13.20
2018-12-14T13:48:20.692Z,14.17
2018-12-14T13:50:48.159Z,13.50
2018-12-14T13:53:15.721Z,13.90
2018-12-14T13:55:43.732Z,13.73
2018-12-14T13:58:11.203Z,14.37
2018-12-14T14:00:38.647Z,13.33
2018-12-14T14:03:06.075Z,12.60
2018-12-14T14:05:33.521Z,12.87
2018-12-14T14:08:01.013Z,13.47
2018-12-14T14:10:28.420Z,14.37
2018-12-14T14:12:56.030Z,14.63
2018-12-14T14:15:23.489Z,14.60
2018-12-14T14:17:50.933Z,15.07
2018-12-14T14:20:18.373Z,14.73
2018-12-14T14:22:45.981Z,13.97
2018-12-14T14:25:17.484Z,13.97
2018-12-14T14:27:42.923Z,13.37
2018-12-14T14:30:10.386Z,13.33
2018-12-14T14:32:37.875Z,14.60
2018-12-14T14:35:05.379Z,13.00
2018-12-14T14:37:32.796Z,14.30
2018-12-14T14:40:00.268Z,14.27
2018-12-14T14:42:27.699Z,13.40
2018-12-14T14:44:59.722Z,13.70
2018-12-14T14:47:27.999Z,14.10
2018-12-14T14:49:55.436Z,15.13
2018-12-14T14:52:22.881Z,15.27
2018-12-14T14:54:50.550Z,15.07
2018-12-14T14:57:17.967Z,15.50
2018-12-14T14:59:45.411Z,14.87
2018-12-14T15:02:12.862Z,14.30
2018-12-14T15:04:40.298Z,14.27
2018-12-14T15:07:07.727Z,12.80
2018-12-14T15:09:35.187Z,14.37
2018-12-14T15:12:02.714Z,13.10
2018-12-14T15:14:30.199Z,13.93
2018-12-14T15:16:57.653Z,13.83
2018-12-14T15:19:25.089Z,12.60
2018-12-14T15:24:26.389Z,12.90
2018-12-14T15:26:53.867Z,13.83
2018-12-14T15:29:21.275Z,14.00
2018-12-14T15:31:48.755Z,14.47
2018-12-14T15:34:16.189Z,14.40
2018-12-14T15:36:43.774Z,13.33
2018-12-14T15:39:11.204Z,15.43
2018-12-14T15:41:38.659Z,14.57
2018-12-14T15:44:06.098Z,14.63
2018-12-14T15:46:33.569Z,14.47
2018-12-14T15:49:01.010Z,16.07
2018-12-14T15:51:28.427Z,15.07
2018-12-14T15:53:55.863Z,15.30
2018-12-14T15:56:23.442Z,14.80
2018-12-14T15:58:50.972Z,15.37
2018-12-14T16:01:18.668Z,15.43
2018-12-14T16:03:46.221Z,14.93
2018-12-14T16:06:13.649Z,17.40
2018-12-14T16:08:41.200Z,16.23
2018-12-14T16:11:08.654Z,16.97
2018-12-14T16:13:36.148Z,16.50
2018-12-14T16:16:03.880Z,14.87
2018-12-14T16:18:31.457Z,16.70
2018-12-14T16:20:59.045Z,15.40
2018-12-14T16:23:26.755Z,16.97
2018-12-14T16:25:54.273Z,16.60
2018-12-14T16:28:21.749Z,16.33
2018-12-14T16:30:49.229Z,16.93
2018-12-14T16:33:16.671Z,15.87
2018-12-14T16:35:44.108Z,17.07
2018-12-14T16:38:11.573Z,15.97
2018-12-14T16:40:39.028Z,15.80
2018-12-14T16:43:06.448Z,16.27
2018-12-14T16:45:33.929Z,15.73
2018-12-14T16:48:01.441Z,15.67
2018-12-14T16:50:28.887Z,17.43
2018-12-14T16:52:56.410Z,17.37
2018-12-14T16:55:23.875Z,16.40
2018-12-14T16:57:51.360Z,17.80
2018-12-14T17:00:18.796Z,15.77
2018-12-14T17:02:46.424Z,17.23
2018-12-14T17:05:13.893Z,16.90
2018-12-14T17:07:41.340Z,17.03
2018-12-14T17:10:08.896Z,18.70
2018-12-14T17:12:36.502Z,17.33
2018-12-14T17:17:37.065Z,16.83
2018-12-14T17:20:05.331Z,17.20
2018-12-14T17:22:32.888Z,17.77
2018-12-14T17:25:00.339Z,17.10
2018-12-14T17:27:27.799Z,16.10
2018-12-14T17:29:55.230Z,16.70
2018-12-14T17:32:22.828Z,17.47
2018-12-14T17:34:50.251Z,16.17
2018-12-14T17:37:17.701Z,15.63
2018-12-14T17:39:46.017Z,16.43
2018-12-14T17:42:13.481Z,16.50
2018-12-14T17:44:41.283Z,15.93
2018-12-14T17:47:08.735Z,16.27
2018-12-14T17:49:36.163Z,15.10
2018-12-14T17:52:03.621Z,14.63
2018-12-14T17:54:31.072Z,16.10
2018-12-14T17:56:58.524Z,17.20
2018-12-14T17:59:25.981Z,17.43
2018-12-14T18:01:53.447Z,16.63
2018-12-14T18:04:20.977Z,16.37
2018-12-14T18:06:48.443Z,16.23
2018-12-14T18:09:16.021Z,15.97
2018-12-14T18:11:43.571Z,16.57
2018-12-14T18:14:11.100Z,16.63
2018-12-14T18:16:38.735Z,16.30
2018-12-14T18:19:06.194Z,16.60
2018-12-14T18:21:33.624Z,16.17
2018-12-14T18:24:01.122Z,15.10
2018-12-14T18:26:28.554Z,15.83
2018-12-14T18:28:56.053Z,16.33
2018-12-14T18:31:23.562Z,16.63
2018-12-14T18:33:51.022Z,16.53
2018-12-14T18:36:18.460Z,15.97
2018-12-14T18:38:45.936Z,17.40
2018-12-14T18:41:13.435Z,17.37
2018-12-14T18:43:41.097Z,17.13
2018-12-14T18:46:08.553Z,17.80
2018-12-14T18:48:36.004Z,17.90
2018-12-14T18:51:03.433Z,17.27
2018-12-14T18:53:31.007Z,18.07
2018-12-14T18:55:58.465Z,18.90
2018-12-14T18:58:25.986Z,19.10
2018-12-14T19:00:53.541Z,17.77
2018-12-14T19:03:20.994Z,19.63
2018-12-14T19:05:48.499Z,18.30
2018-12-14T19:08:15.985Z,18.30
2018-12-14T19:10:43.482Z,19.83
2018-12-14T19:13:10.912Z,18.97
2018-12-14T19:15:38.444Z,18.63
2018-12-14T19:18:06.030Z,17.43
2018-12-14T19:20:33.466Z,16.97
2018-12-14T19:23:00.983Z,17.30
2018-12-14T19:25:28.462Z,17.63
2018-12-14T19:27:55.899Z,18.00
2018-12-14T19:30:23.486Z,17.30
2018-12-14T19:32:50.951Z,17.93
2018-12-14T19:35:18.418Z,17.87
2018-12-14T19:37:45.860Z,17.10
2018-12-14T19:40:13.286Z,16.93
2018-12-14T19:42:40.746Z,17.87
2018-12-14T19:45:08.980Z,17.73
2018-12-14T19:47:36.617Z,18.40
2018-12-14T19:50:06.680Z,16.13
2018-12-14T19:52:34.185Z,17.10
2018-12-14T19:55:01.798Z,16.83
2018-12-14T19:57:29.254Z,18.73
2018-12-14T19:59:56.683Z,19.77
2018-12-14T20:02:25.641Z,18.67
2018-12-14T20:04:53.088Z,17.80
2018-12-14T20:07:20.896Z,18.10
2018-12-14T20:09:48.368Z,18.47
2018-12-14T20:12:15.895Z,17.27
2018-12-14T20:14:43.375Z,17.23
2018-12-14T20:17:10.954Z,16.60
2018-12-14T20:19:38.431Z,15.70
2018-12-14T20:22:05.857Z,16.10
2018-12-14T20:24:33.447Z,15.77
2018-12-14T20:27:00.867Z,15.30
2018-12-14T20:29:28.381Z,15.20
2018-12-14T20:31:55.863Z,15.57
2018-12-14T20:34:23.323Z,15.17
2018-12-14T20:36:50.845Z,14.27
2018-12-14T20:39:18.306Z,14.90
2018-12-14T20:41:45.751Z,14.97
2018-12-14T20:44:13.207Z,14.40
2018-12-14T20:46:40.643Z,14.67
2018-12-14T20:49:08.131Z,14.43
2018-12-14T20:51:35.647Z,13.93
2018-12-14T20:54:03.095Z,14.00
2018-12-14T20:56:30.559Z,14.93
2018-12-14T20:58:58.033Z,14.57
2018-12-14T21:01:25.461Z,15.87
2018-12-14T21:03:52.906Z,13.43
2018-12-14T21:06:20.360Z,16.37
2018-12-14T21:08:47.829Z,14.20
2018-12-14T21:11:15.403Z,15.13
2018-12-14T21:13:42.829Z,14.13
2018-12-14T21:16:10.287Z,15.57
2018-12-14T21:18:37.798Z,14.13
2018-12-14T21:21:05.245Z,15.60
2018-12-14T21:23:32.677Z,14.13
2018-12-14T21:26:00.152Z,14.63
2018-12-14T21:28:27.590Z,14.83
2018-12-14T21:30:55.126Z,13.43
2018-12-14T21:33:22.635Z,14.57
2018-12-14T21:35:55.280Z,14.73
2018-12-14T21:38:22.754Z,13.77
2018-12-14T21:40:50.203Z,14.60
2018-12-14T21:43:17.673Z,14.20
2018-12-14T21:45:45.158Z,14.03
2018-12-14T21:48:12.577Z,21.33
2018-12-14T21:50:40.113Z,13.40
2018-12-14T21:53:14.129Z,13.07
2018-12-14T21:55:36.978Z,14.17
2018-12-14T21:58:04.842Z,14.13
2018-12-14T22:00:32.255Z,13.77
2018-12-14T22:02:59.708Z,13.30
2018-12-14T22:05:27.129Z,13.40
2018-12-14T22:07:54.584Z,12.63
2018-12-14T22:10:22.112Z,12.87
2018-12-14T22:12:49.543Z,11.37
2018-12-14T22:15:16.988Z,12.20
2018-12-14T22:17:44.419Z,12.43
2018-12-14T22:20:11.979Z,13.17
2018-12-14T22:22:39.403Z,13.00
2018-12-14T22:25:06.929Z,12.20
2018-12-14T22:27:34.357Z,12.33
2018-12-14T22:30:01.843Z,12.73
2018-12-14T22:32:29.384Z,11.77
2018-12-14T22:34:56.847Z,11.70
2018-12-14T22:37:24.263Z,11.63
2018-12-14T22:39:52.016Z,11.57
2018-12-14T22:42:19.448Z,11.03
2018-12-14T22:44:46.898Z,12.17
2018-12-14T22:47:14.337Z,10.57
2018-12-14T22:49:41.787Z,11.50
2018-12-14T22:52:09.238Z,11.57
2018-12-14T22:54:36.681Z,11.77
2018-12-14T22:57:04.104Z,11.03
2018-12-14T22:59:31.651Z,10.90
2018-12-14T23:01:59.126Z,10.30
2018-12-14T23:04:26.581Z,11.73
2018-12-14T23:06:54.024Z,11.10
2018-12-14T23:09:21.604Z,10.70
2018-12-14T23:11:49.042Z,11.27
2018-12-14T23:14:16.463Z,11.97
2018-12-14T23:16:43.929Z,11.27
2018-12-14T23:19:11.372Z,11.47
2018-12-14T23:21:38.832Z,11.07
2018-12-14T23:24:06.436Z,10.90
2018-12-14T23:26:33.897Z,11.60
2018-12-14T23:29:01.326Z,11.50
2018-12-14T23:31:28.775Z,11.90
2018-12-14T23:33:56.257Z,11.87
2018-12-14T23:36:23.734Z,10.90
2018-12-14T23:38:51.284Z,11.90
2018-12-14T23:41:18.703Z,11.70
2018-12-14T23:43:46.127Z,11.80
2018-12-14T23:46:13.591Z,11.43
2018-12-14T23:48:41.058Z,11.40
2018-12-14T23:51:08.493Z,11.33
2018-12-14T23:53:35.924Z,11.17
2018-12-14T23:56:03.364Z,11.40
2018-12-14T23:58:30.794Z,10.90
